< < Back
Terminal Aerodrome Forecast


Current Version              Previous Versions:   1  2  3  4  5  6  7  8  9  

Terminal Aerodrome Forecast

703
FTUS44 KBMX 281720
TAFANB
TAF
KANB 281720Z 2818/2918 33007KT P6SM BKN070
     FM290200 00000KT P6SM FEW050=

Latest METAR

555
SAUS70 KWBC 291600 RRA
MTRANB
METAR KANB 291553Z AUTO VRB03KT 10SM CLR 11/M09 A3037 RMK AO2 SLP292
T01111089


USA.gov is the U.S. government's official web portal to all federal, state and local government web resources and services.